createdAt,value
2019-04-06T00:00:34.821Z,28.70
2019-04-06T00:03:00.618Z,32.75
2019-04-06T00:05:26.440Z,26.70
2019-04-06T00:07:52.278Z,22.80
2019-04-06T00:10:18.322Z,27.40
2019-04-06T00:12:44.409Z,23.30
2019-04-06T00:15:10.558Z,27.00
2019-04-06T00:17:41.291Z,24.55
2019-04-06T00:20:07.568Z,26.65
2019-04-06T00:22:37.145Z,23.77
2019-04-06T00:25:05.034Z,23.50
2019-04-06T00:27:30.822Z,25.88
2019-04-06T00:29:56.906Z,24.23
2019-04-06T00:32:27.636Z,26.68
2019-04-06T00:34:53.498Z,24.23
2019-04-06T00:37:19.270Z,22.67
2019-04-06T00:39:45.099Z,26.30
2019-04-06T00:42:10.928Z,23.93
2019-04-06T00:44:36.759Z,22.70
2019-04-06T00:47:02.647Z,19.30
2019-04-06T00:49:30.027Z,24.30
2019-04-06T00:51:55.840Z,35.73
2019-04-06T00:54:24.863Z,22.90
2019-04-06T00:56:50.913Z,28.67
2019-04-06T00:59:19.796Z,27.02
2019-04-06T01:01:45.579Z,22.25
2019-04-06T01:04:13.909Z,25.77
2019-04-06T01:06:39.719Z,24.87
2019-04-06T01:09:08.740Z,25.03
2019-04-06T01:11:34.546Z,26.45
2019-04-06T01:14:00.751Z,24.73
2019-04-06T01:16:26.539Z,32.48
2019-04-06T01:18:52.354Z,27.77
2019-04-06T01:21:21.253Z,22.37
2019-04-06T01:23:47.092Z,24.90
2019-04-06T01:26:16.056Z,26.00
2019-04-06T01:28:42.107Z,20.92
2019-04-06T01:31:11.136Z,25.17
2019-04-06T01:33:36.939Z,20.62
2019-04-06T01:36:05.553Z,31.53
2019-04-06T01:38:31.353Z,27.45
2019-04-06T01:40:59.955Z,29.70
2019-04-06T01:43:25.803Z,23.87
2019-04-06T01:45:54.611Z,29.50
2019-04-06T01:48:20.412Z,26.25
2019-04-06T01:50:46.245Z,26.97
2019-04-06T01:53:12.317Z,27.50
2019-04-06T01:55:38.376Z,27.15
2019-04-06T01:58:05.509Z,30.08
2019-04-06T02:00:31.323Z,28.73
2019-04-06T02:03:00.051Z,23.73
2019-04-06T02:05:25.874Z,20.35
2019-04-06T02:07:54.785Z,24.40
2019-04-06T02:10:20.968Z,23.83
2019-04-06T02:12:50.135Z,23.90
2019-04-06T02:15:16.036Z,24.45
2019-04-06T02:17:44.914Z,24.43
2019-04-06T02:20:10.809Z,22.37
2019-04-06T02:22:39.591Z,23.53
2019-04-06T02:25:05.695Z,25.23
2019-04-06T02:27:31.610Z,23.00
2019-04-06T02:30:17.294Z,36.03
2019-04-06T02:33:02.104Z,25.08
2019-04-06T02:35:39.480Z,23.55
2019-04-06T02:38:10.171Z,23.32
2019-04-06T02:40:37.967Z,29.02
2019-04-06T02:43:08.612Z,24.65
2019-04-06T02:45:34.552Z,24.10
2019-04-06T02:48:00.523Z,21.80
2019-04-06T02:50:26.319Z,26.75
2019-04-06T02:52:52.132Z,29.00
2019-04-06T02:55:18.190Z,26.80
2019-04-06T02:57:44.016Z,23.98
2019-04-06T03:00:10.209Z,25.03
2019-04-06T03:02:36.124Z,26.27
2019-04-06T03:05:04.143Z,22.53
2019-04-06T03:07:29.951Z,22.87
2019-04-06T03:09:55.763Z,24.10
2019-04-06T03:12:21.618Z,26.30
2019-04-06T03:14:47.672Z,22.97
2019-04-06T03:17:13.453Z,24.45
2019-04-06T03:19:39.506Z,34.37
2019-04-06T03:22:05.601Z,19.98
2019-04-06T03:24:31.515Z,25.45
2019-04-06T03:27:01.762Z,28.77
2019-04-06T03:29:24.996Z,24.07
2019-04-06T03:31:50.915Z,23.97
2019-04-06T03:34:21.570Z,30.67
2019-04-06T03:36:44.772Z,27.32
2019-04-06T03:39:10.599Z,25.30
2019-04-06T03:41:36.419Z,21.73
2019-04-06T03:44:02.312Z,21.77
2019-04-06T03:46:28.130Z,27.27
2019-04-06T03:48:53.939Z,25.60
2019-04-06T03:51:20.025Z,31.83
2019-04-06T03:53:45.836Z,31.77
2019-04-06T03:56:11.672Z,25.67
2019-04-06T03:58:37.540Z,26.57
2019-04-06T04:01:03.597Z,26.90
2019-04-06T04:03:29.677Z,22.85
2019-04-06T04:05:55.476Z,27.40
2019-04-06T04:08:21.299Z,26.63
2019-04-06T04:10:47.994Z,27.90
2019-04-06T04:13:13.917Z,33.33
2019-04-06T04:15:39.867Z,28.90
2019-04-06T04:18:06.050Z,23.60
2019-04-06T04:20:31.906Z,25.77
2019-04-06T04:22:57.709Z,28.90
2019-04-06T04:25:23.778Z,30.17
2019-04-06T04:27:49.661Z,27.35
2019-04-06T04:30:20.536Z,33.50
2019-04-06T04:32:43.566Z,29.60
2019-04-06T04:35:09.387Z,22.45
2019-04-06T04:37:35.190Z,25.03
2019-04-06T04:40:01.300Z,26.70
2019-04-06T04:42:27.083Z,29.25
2019-04-06T04:44:52.935Z,29.87
2019-04-06T04:47:18.741Z,28.00
2019-04-06T04:49:44.555Z,29.20
2019-04-06T04:52:10.677Z,27.50
2019-04-06T04:54:36.488Z,31.37
2019-04-06T04:57:02.678Z,27.30
2019-04-06T04:59:28.772Z,26.35
2019-04-06T05:01:54.746Z,23.67
2019-04-06T05:04:20.670Z,26.48
2019-04-06T05:06:49.975Z,24.10
2019-04-06T05:09:16.063Z,30.57
2019-04-06T05:11:41.862Z,29.37
2019-04-06T05:14:45.649Z,27.00
2019-04-06T05:17:11.481Z,32.08
2019-04-06T05:19:37.572Z,32.30
2019-04-06T05:22:03.518Z,28.02
2019-04-06T05:24:29.314Z,31.17
2019-04-06T05:26:55.439Z,29.77
2019-04-06T05:29:21.361Z,26.60
2019-04-06T05:31:47.114Z,31.10
2019-04-06T05:34:12.931Z,29.27
2019-04-06T05:36:38.994Z,24.17
2019-04-06T05:39:04.895Z,26.77
2019-04-06T05:41:30.811Z,25.33
2019-04-06T05:43:56.994Z,31.07
2019-04-06T05:46:22.810Z,26.42
2019-04-06T05:48:48.897Z,30.43
2019-04-06T05:51:14.709Z,29.35
2019-04-06T05:53:40.532Z,25.07
2019-04-06T05:56:06.774Z,26.90
2019-04-06T05:58:32.633Z,24.92
2019-04-06T06:00:58.457Z,31.17
2019-04-06T06:03:24.279Z,26.20
2019-04-06T06:05:50.076Z,28.43
2019-04-06T06:08:16.136Z,27.00
2019-04-06T06:10:42.016Z,30.08
2019-04-06T06:13:08.064Z,30.07
2019-04-06T06:15:34.084Z,30.50
2019-04-06T06:18:00.251Z,29.87
2019-04-06T06:20:26.053Z,27.32
2019-04-06T06:22:51.854Z,30.47
2019-04-06T06:25:17.765Z,27.37
2019-04-06T06:27:43.867Z,31.17
2019-04-06T06:30:10.087Z,42.05
2019-04-06T06:32:35.963Z,55.70
2019-04-06T06:35:02.884Z,28.23
2019-04-06T06:37:29.060Z,30.50
2019-04-06T06:39:58.241Z,29.37
2019-04-06T06:42:24.043Z,30.25
2019-04-06T06:44:50.161Z,28.90
2019-04-06T06:47:15.969Z,28.55
2019-04-06T06:49:41.764Z,31.63
2019-04-06T06:52:10.372Z,27.93
2019-04-06T06:54:36.483Z,32.53
2019-04-06T06:57:05.587Z,42.55
2019-04-06T06:59:31.415Z,40.63
2019-04-06T07:01:57.331Z,50.00
2019-04-06T07:04:23.391Z,44.00
2019-04-06T07:06:54.000Z,43.58
2019-04-06T07:09:19.818Z,39.38
2019-04-06T07:11:46.997Z,34.50
2019-04-06T07:14:13.086Z,32.93
2019-04-06T07:16:41.896Z,33.58
2019-04-06T07:19:07.948Z,32.13
2019-04-06T07:21:33.742Z,31.37
2019-04-06T07:23:59.569Z,28.13
2019-04-06T07:26:25.592Z,37.83
2019-04-06T07:28:54.181Z,34.65
2019-04-06T07:31:20.304Z,31.68
2019-04-06T07:33:49.151Z,41.55
2019-04-06T07:36:15.372Z,37.40
2019-04-06T07:38:44.030Z,37.48
2019-04-06T07:41:09.827Z,38.20
2019-04-06T07:43:38.713Z,39.13
2019-04-06T07:46:04.553Z,42.40
2019-04-06T07:48:33.467Z,39.43
2019-04-06T07:50:59.362Z,36.63
2019-04-06T07:53:28.385Z,45.20
2019-04-06T07:55:54.488Z,40.07
2019-04-06T07:58:20.470Z,39.40
2019-04-06T08:00:46.324Z,42.97
2019-04-06T08:03:12.140Z,40.80
2019-04-06T08:05:41.039Z,40.57
2019-04-06T08:08:07.096Z,42.58
2019-04-06T08:10:36.304Z,38.73
2019-04-06T08:13:02.127Z,43.48
2019-04-06T08:15:30.989Z,39.97
2019-04-06T08:17:56.796Z,37.78
2019-04-06T08:20:22.896Z,36.97
2019-04-06T08:22:49.170Z,38.58
2019-04-06T08:25:18.377Z,36.17
2019-04-06T08:27:44.198Z,40.85
2019-04-06T08:30:12.928Z,43.33
2019-04-06T08:32:38.924Z,43.05
2019-04-06T08:35:05.723Z,41.33
2019-04-06T08:37:31.532Z,40.55
2019-04-06T08:39:57.671Z,46.70
2019-04-06T08:42:26.758Z,41.60
2019-04-06T08:44:52.847Z,47.05
2019-04-06T08:47:18.674Z,37.25
2019-04-06T08:49:44.493Z,44.73
2019-04-06T08:52:14.315Z,38.47
2019-04-06T08:54:40.548Z,41.60
2019-04-06T08:57:09.450Z,40.78
2019-04-06T08:59:35.262Z,39.55
2019-04-06T09:02:04.194Z,42.33
2019-04-06T09:04:30.206Z,40.20
2019-04-06T09:06:59.009Z,41.50
2019-04-06T09:09:25.332Z,33.10
2019-04-06T09:11:51.241Z,38.10
2019-04-06T09:14:17.647Z,37.30
2019-04-06T09:16:43.596Z,36.73
2019-04-06T09:19:09.405Z,42.67
2019-04-06T09:21:35.300Z,44.57
2019-04-06T09:24:04.190Z,46.50
2019-04-06T09:26:30.011Z,43.23
2019-04-06T09:29:00.421Z,47.30
2019-04-06T09:31:26.517Z,46.92
2019-04-06T09:33:53.804Z,44.27
2019-04-06T09:36:19.896Z,44.53
2019-04-06T09:38:48.693Z,47.17
2019-04-06T09:41:14.508Z,43.90
2019-04-06T09:43:43.327Z,47.30
2019-04-06T09:46:13.817Z,43.40
2019-04-06T09:48:50.755Z,46.70
2019-04-06T09:51:36.958Z,48.60
2019-04-06T09:54:07.820Z,43.20
2019-04-06T09:56:41.607Z,52.93
2019-04-06T09:59:35.331Z,44.07
2019-04-06T10:02:11.863Z,43.07
2019-04-06T10:04:52.019Z,44.27
2019-04-06T10:07:22.834Z,41.25
2019-04-06T10:09:50.586Z,43.45
2019-04-06T10:12:35.429Z,43.63
2019-04-06T10:15:03.513Z,51.97
2019-04-06T10:17:46.619Z,53.30
2019-04-06T10:20:17.162Z,55.50
2019-04-06T10:22:50.468Z,52.80
2019-04-06T10:25:18.223Z,55.20
2019-04-06T10:28:05.403Z,58.40
2019-04-06T10:30:39.293Z,51.28
2019-04-06T10:33:13.327Z,49.55
2019-04-06T10:35:58.035Z,52.58
2019-04-06T10:38:38.566Z,55.90
2019-04-06T10:41:12.308Z,52.97
2019-04-06T10:43:45.652Z,54.93
2019-04-06T10:46:13.323Z,87.23
2019-04-06T10:48:44.268Z,51.40
2019-04-06T10:54:12.176Z,47.57
2019-04-06T10:56:45.682Z,54.53
2019-04-06T10:59:16.418Z,46.40
2019-04-06T11:02:01.431Z,52.07
2019-04-06T11:04:41.511Z,50.40
2019-04-06T11:07:26.149Z,44.97
2019-04-06T11:09:57.225Z,44.63
2019-04-06T11:12:28.649Z,44.93
2019-04-06T11:14:56.389Z,46.77
2019-04-06T11:17:26.922Z,44.30
2019-04-06T11:20:07.012Z,44.97
2019-04-06T11:22:48.335Z,52.97
2019-04-06T11:25:16.271Z,45.50
2019-04-06T11:27:47.249Z,60.50
2019-04-06T11:30:34.899Z,54.67
2019-04-06T11:33:06.060Z,57.87
2019-04-06T11:38:23.070Z,50.47
2019-04-06T11:40:54.223Z,50.87
2019-04-06T11:43:38.914Z,43.00
2019-04-06T11:46:07.248Z,41.37
2019-04-06T11:48:51.529Z,49.87
2019-04-06T11:51:19.248Z,46.53
2019-04-06T11:53:56.667Z,54.53
2019-04-06T11:56:24.987Z,59.40
2019-04-06T11:59:11.047Z,43.97
2019-04-06T12:01:41.685Z,46.02
2019-04-06T12:04:21.719Z,50.75
2019-04-06T12:07:06.579Z,52.65
2019-04-06T12:09:37.097Z,42.78
2019-04-06T12:12:04.997Z,45.85
2019-04-06T12:14:32.935Z,42.25
2019-04-06T12:17:15.429Z,40.10
2019-04-06T12:19:55.187Z,47.77
2019-04-06T12:22:22.881Z,41.63
2019-04-06T12:25:02.581Z,47.03
2019-04-06T12:27:54.366Z,40.00
2019-04-06T12:30:22.199Z,42.07
2019-04-06T12:32:49.924Z,44.13
2019-04-06T12:35:20.761Z,39.47
2019-04-06T12:37:51.814Z,46.33
2019-04-06T12:40:32.251Z,43.10
2019-04-06T12:43:15.442Z,43.03
2019-04-06T12:45:43.229Z,38.40
2019-04-06T12:48:13.726Z,38.47
2019-04-06T12:50:57.999Z,37.77
2019-04-06T12:53:42.302Z,29.83
2019-04-06T12:56:10.486Z,44.93
2019-04-06T12:58:47.579Z,36.07
2019-04-06T13:01:18.220Z,37.07
2019-04-06T13:04:02.834Z,35.93
2019-04-06T13:06:30.929Z,35.20
2019-04-06T13:09:15.949Z,37.27
2019-04-06T13:11:46.979Z,26.43
2019-04-06T13:14:20.814Z,28.77
2019-04-06T13:16:52.638Z,29.17
2019-04-06T13:19:41.898Z,31.70
2019-04-06T13:22:26.525Z,29.87
2019-04-06T13:25:12.389Z,28.60
2019-04-06T13:27:42.984Z,26.43
2019-04-06T13:30:29.032Z,26.87
2019-04-06T13:32:57.687Z,30.07
2019-04-06T13:35:31.804Z,28.40
2019-04-06T13:38:08.882Z,26.97
2019-04-06T13:40:53.103Z,24.80
2019-04-06T13:43:39.521Z,32.77
2019-04-06T13:46:23.935Z,27.23
2019-04-06T13:48:52.146Z,27.40
2019-04-06T13:51:31.828Z,24.00
2019-04-06T13:54:08.124Z,23.40
2019-04-06T13:56:38.931Z,24.33
2019-04-06T13:59:18.584Z,24.40
2019-04-06T14:01:46.624Z,23.70
2019-04-06T14:04:17.056Z,24.60
2019-04-06T14:07:01.527Z,23.97
2019-04-06T14:09:36.546Z,24.57
2019-04-06T14:12:13.187Z,27.57
2019-04-06T14:14:57.802Z,25.00
2019-04-06T14:17:31.928Z,25.87
2019-04-06T14:19:59.654Z,24.50
2019-04-06T14:22:27.369Z,20.67
2019-04-06T14:25:00.956Z,23.57
2019-04-06T14:27:29.067Z,20.43
2019-04-06T14:30:05.824Z,21.60
2019-04-06T14:32:50.791Z,26.00
2019-04-06T14:35:19.040Z,19.90
2019-04-06T14:37:59.039Z,21.00
2019-04-06T14:40:43.859Z,23.73
2019-04-06T14:43:28.479Z,24.07
2019-04-06T14:46:14.239Z,22.97
2019-04-06T14:48:48.048Z,18.07
2019-04-06T14:51:24.855Z,21.27
2019-04-06T14:54:08.078Z,24.10
2019-04-06T14:56:42.101Z,21.70
2019-04-06T14:59:10.229Z,21.17
2019-04-06T15:01:57.836Z,23.13
2019-04-06T15:04:22.784Z,21.60
2019-04-06T15:07:11.486Z,36.27
2019-04-06T15:09:45.681Z,25.90
2019-04-06T15:12:16.710Z,25.90
2019-04-06T15:14:47.213Z,25.50
2019-04-06T15:17:18.040Z,17.07
2019-04-06T15:19:45.798Z,18.30
2019-04-06T15:22:16.333Z,18.27
2019-04-06T15:24:47.326Z,21.67
2019-04-06T15:27:30.601Z,22.23
2019-04-06T15:30:11.039Z,20.93
2019-04-06T15:32:39.105Z,15.90
2019-04-06T15:35:10.400Z,17.77
2019-04-06T15:37:38.137Z,18.27
2019-04-06T15:40:20.835Z,18.20
2019-04-06T15:43:04.096Z,19.63
2019-04-06T15:45:44.645Z,17.83
2019-04-06T15:48:37.008Z,17.87
2019-04-06T15:51:05.201Z,21.10
2019-04-06T15:53:39.875Z,17.67
2019-04-06T15:56:10.535Z,20.07
2019-04-06T15:58:38.263Z,21.03
2019-04-06T16:01:11.760Z,17.23
2019-04-06T16:03:42.670Z,24.77
2019-04-06T16:06:13.541Z,20.43
2019-04-06T16:08:41.267Z,15.93
2019-04-06T16:11:25.917Z,16.87
2019-04-06T16:14:00.456Z,16.13
2019-04-06T16:16:40.318Z,20.10
2019-04-06T16:19:08.307Z,18.37
2019-04-06T16:21:53.266Z,20.30
2019-04-06T16:24:21.845Z,19.33
2019-04-06T16:27:05.140Z,17.97
2019-04-06T16:29:35.702Z,14.83
2019-04-06T16:32:18.712Z,18.67
2019-04-06T16:34:49.686Z,16.97
2019-04-06T16:37:20.542Z,17.20
2019-04-06T16:39:51.341Z,12.77
2019-04-06T16:42:36.044Z,15.47
2019-04-06T16:45:14.696Z,18.47
2019-04-06T16:47:59.465Z,17.00
2019-04-06T16:50:39.893Z,14.60
2019-04-06T16:53:08.163Z,18.47
2019-04-06T16:55:54.633Z,20.60
2019-04-06T16:58:37.742Z,20.23
2019-04-06T17:01:21.044Z,16.40
2019-04-06T17:04:01.229Z,16.10
2019-04-06T17:06:34.986Z,16.60
2019-04-06T17:09:08.219Z,19.43
2019-04-06T17:11:47.758Z,27.73
2019-04-06T17:14:26.030Z,16.17
2019-04-06T17:17:06.336Z,18.80
2019-04-06T17:19:34.334Z,14.87
2019-04-06T17:22:07.992Z,14.63
2019-04-06T17:24:42.091Z,16.43
2019-04-06T17:27:19.179Z,13.80
2019-04-06T17:29:50.431Z,14.07
2019-04-06T17:32:22.770Z,13.67
2019-04-06T17:34:54.448Z,18.10
2019-04-06T17:37:20.884Z,14.87
2019-04-06T17:40:04.126Z,15.53
2019-04-06T17:42:34.715Z,15.37
2019-04-06T17:45:11.515Z,17.57
2019-04-06T17:47:45.224Z,19.37
2019-04-06T17:50:19.821Z,16.23
2019-04-06T17:52:50.594Z,22.60
2019-04-06T17:55:18.320Z,14.97
2019-04-06T17:57:46.288Z,17.07
2019-04-06T18:00:32.696Z,16.20
2019-04-06T18:05:55.412Z,22.80
2019-04-06T18:08:32.161Z,23.97
2019-04-06T18:11:06.285Z,26.50
2019-04-06T18:13:51.066Z,31.67
2019-04-06T18:16:18.577Z,40.37
2019-04-06T18:18:44.600Z,53.83
2019-04-06T18:21:10.405Z,54.17
2019-04-06T18:23:36.247Z,58.27
2019-04-06T18:26:02.341Z,49.60
2019-04-06T18:28:28.409Z,38.60
2019-04-06T18:30:56.140Z,39.80
2019-04-06T18:33:26.533Z,38.37
2019-04-06T18:35:52.259Z,31.23
2019-04-06T18:38:19.987Z,30.27
2019-04-06T18:40:46.114Z,33.10
2019-04-06T18:43:11.940Z,25.80
2019-04-06T18:45:37.757Z,23.10
2019-04-06T18:48:03.580Z,30.37
2019-04-06T18:50:36.717Z,21.80
2019-04-06T18:52:57.772Z,21.68
2019-04-06T18:55:24.426Z,17.05
2019-04-06T18:57:50.410Z,22.22
2019-04-06T19:00:17.291Z,19.52
2019-04-06T19:02:43.703Z,18.92
2019-04-06T19:05:09.997Z,16.40
2019-04-06T19:07:35.813Z,14.30
2019-04-06T19:10:04.624Z,20.43
2019-04-06T19:12:30.442Z,16.40
2019-04-06T19:14:56.547Z,15.10
2019-04-06T19:17:22.585Z,29.92
2019-04-06T19:19:48.865Z,19.10
2019-04-06T19:22:14.983Z,17.37
2019-04-06T19:24:41.039Z,20.82
2019-04-06T19:27:06.872Z,20.15
2019-04-06T19:29:32.974Z,30.57
2019-04-06T19:31:59.029Z,25.17
2019-04-06T19:34:25.013Z,22.40
2019-04-06T19:36:50.971Z,20.03
2019-04-06T19:39:16.868Z,24.90
2019-04-06T19:41:42.833Z,25.20
2019-04-06T19:44:09.159Z,26.80
2019-04-06T19:46:35.187Z,25.75
2019-04-06T19:49:01.258Z,20.72
2019-04-06T19:51:27.387Z,28.30
2019-04-06T19:53:53.639Z,26.95
2019-04-06T19:56:20.058Z,27.48
2019-04-06T19:58:46.426Z,25.65
2019-04-06T20:01:12.636Z,25.20
2019-04-06T20:03:41.277Z,23.32
2019-04-06T20:06:07.098Z,23.07
2019-04-06T20:08:36.269Z,28.30
2019-04-06T20:11:02.293Z,31.48
2019-04-06T20:13:28.915Z,29.53
2019-04-06T20:15:55.505Z,23.05
2019-04-06T20:18:21.760Z,23.92
2019-04-06T20:20:47.918Z,27.37
2019-04-06T20:23:14.001Z,21.50
2019-04-06T20:25:40.207Z,22.87
2019-04-06T20:28:06.641Z,28.85
2019-04-06T20:30:34.649Z,25.50
2019-04-06T20:33:00.448Z,22.13
2019-04-06T20:35:29.479Z,19.33
2019-04-06T20:37:55.506Z,24.27
2019-04-06T20:40:24.582Z,22.30
2019-04-06T20:42:50.719Z,22.55
2019-04-06T20:45:19.668Z,18.15
2019-04-06T20:47:45.754Z,26.10
2019-04-06T20:50:11.949Z,31.20
2019-04-06T20:52:37.778Z,22.48
2019-04-06T20:55:06.343Z,20.77
2019-04-06T20:57:32.189Z,19.75
2019-04-06T20:59:57.977Z,23.87
2019-04-06T21:02:25.547Z,21.30
2019-04-06T21:04:51.438Z,19.27
2019-04-06T21:07:20.655Z,22.40
2019-04-06T21:09:47.236Z,22.40
2019-04-06T21:12:15.980Z,23.07
2019-04-06T21:14:41.879Z,21.37
2019-04-06T21:17:11.647Z,25.00
2019-04-06T21:19:37.764Z,28.92
2019-04-06T21:22:04.841Z,29.27
2019-04-06T21:24:30.978Z,21.30
2019-04-06T21:26:57.122Z,25.27
2019-04-06T21:29:23.511Z,24.87
2019-04-06T21:31:49.826Z,27.90
2019-04-06T21:34:19.330Z,23.42
2019-04-06T21:36:46.196Z,22.82
2019-04-06T21:39:12.178Z,25.77
2019-04-06T21:41:38.480Z,22.47
2019-04-06T21:44:07.527Z,22.82
2019-04-06T21:46:33.671Z,21.02
2019-04-06T21:49:01.230Z,22.37
2019-04-06T21:51:27.555Z,31.05
2019-04-06T21:53:57.577Z,27.15
2019-04-06T21:56:23.487Z,26.10
2019-04-06T21:58:52.323Z,24.27
2019-04-06T22:01:19.549Z,22.75
2019-04-06T22:03:45.841Z,21.68
2019-04-06T22:06:11.915Z,26.10
2019-04-06T22:08:38.491Z,22.70
2019-04-06T22:11:04.808Z,26.70
2019-04-06T22:13:30.912Z,25.45
2019-04-06T22:15:57.243Z,21.75
2019-04-06T22:18:23.541Z,21.52
2019-04-06T22:20:52.355Z,28.80
2019-04-06T22:23:18.548Z,25.77
2019-04-06T22:25:47.575Z,27.45
2019-04-06T22:28:13.383Z,29.10
2019-04-06T22:30:43.178Z,31.60
2019-04-06T22:33:09.259Z,25.27
2019-04-06T22:35:38.393Z,30.08
2019-04-06T22:38:04.787Z,27.27
2019-04-06T22:40:30.570Z,26.43
2019-04-06T22:42:56.363Z,24.80
2019-04-06T22:45:24.217Z,26.20
2019-04-06T22:47:50.756Z,33.48
2019-04-06T22:50:17.610Z,25.50
2019-04-06T22:52:43.526Z,28.40
2019-04-06T22:55:10.170Z,28.47
2019-04-06T22:57:39.763Z,31.20
2019-04-06T23:00:08.007Z,30.40
2019-04-06T23:02:42.758Z,29.18
2019-04-06T23:05:25.577Z,31.33
2019-04-06T23:07:51.715Z,31.23
2019-04-06T23:10:18.483Z,25.37
2019-04-06T23:12:44.839Z,39.92
2019-04-06T23:15:11.821Z,33.35
2019-04-06T23:17:38.536Z,27.40
2019-04-06T23:20:04.714Z,29.07
2019-04-06T23:22:31.742Z,33.35
2019-04-06T23:24:58.031Z,35.00
2019-04-06T23:27:24.354Z,43.28
2019-04-06T23:29:50.805Z,29.00
2019-04-06T23:32:16.979Z,112.55
2019-04-06T23:34:43.101Z,44.70
2019-04-06T23:37:08.931Z,37.73
2019-04-06T23:39:34.969Z,35.30
2019-04-06T23:42:01.008Z,29.72
2019-04-06T23:44:27.070Z,31.70
2019-04-06T23:46:53.122Z,34.92
2019-04-06T23:49:19.102Z,38.38
2019-04-06T23:51:45.243Z,34.25
2019-04-06T23:54:11.101Z,37.73
2019-04-06T23:56:36.916Z,31.93
2019-04-06T23:59:03.357Z,48.87
